sensor_id;sensor_type;location;lat;lon;timestamp;P1;durP1;ratioP1;P2;durP2;ratioP2
75912;SDS011;64592;52.168;21.040;2023-06-14T00:00:43;9.13;;;6.35;;
75912;SDS011;64592;52.168;21.040;2023-06-14T00:05:45;14.32;;;6.97;;
75912;SDS011;64592;52.168;21.040;2023-06-14T00:10:46;12.00;;;7.20;;
75912;SDS011;64592;52.168;21.040;2023-06-14T00:15:49;11.90;;;7.93;;
75912;SDS011;64592;52.168;21.040;2023-06-14T00:20:54;14.95;;;10.43;;
75912;SDS011;64592;52.168;21.040;2023-06-14T00:25:57;18.75;;;11.90;;
75912;SDS011;64592;52.168;21.040;2023-06-14T00:31:00;17.98;;;12.50;;
75912;SDS011;64592;52.168;21.040;2023-06-14T00:36:01;20.98;;;13.15;;
75912;SDS011;64592;52.168;21.040;2023-06-14T00:41:03;19.83;;;13.85;;
75912;SDS011;64592;52.168;21.040;2023-06-14T00:46:06;20.02;;;13.07;;
75912;SDS011;64592;52.168;21.040;2023-06-14T00:51:08;19.60;;;12.48;;
75912;SDS011;64592;52.168;21.040;2023-06-14T00:56:09;19.25;;;12.15;;
75912;SDS011;64592;52.168;21.040;2023-06-14T01:01:14;17.20;;;12.90;;
75912;SDS011;64592;52.168;21.040;2023-06-14T01:06:18;20.08;;;13.57;;
75912;SDS011;64592;52.168;21.040;2023-06-14T01:11:31;20.17;;;12.80;;
75912;SDS011;64592;52.168;21.040;2023-06-14T01:16:37;18.35;;;12.52;;
75912;SDS011;64592;52.168;21.040;2023-06-14T01:21:40;20.73;;;12.90;;
75912;SDS011;64592;52.168;21.040;2023-06-14T01:26:44;18.25;;;11.85;;
75912;SDS011;64592;52.168;21.040;2023-06-14T01:31:51;16.48;;;12.40;;
75912;SDS011;64592;52.168;21.040;2023-06-14T01:36:54;16.92;;;10.32;;
75912;SDS011;64592;52.168;21.040;2023-06-14T01:41:59;16.88;;;10.32;;
75912;SDS011;64592;52.168;21.040;2023-06-14T01:47:02;15.18;;;10.18;;
75912;SDS011;64592;52.168;21.040;2023-06-14T01:52:03;14.70;;;10.23;;
75912;SDS011;64592;52.168;21.040;2023-06-14T01:57:07;13.88;;;10.13;;
75912;SDS011;64592;52.168;21.040;2023-06-14T02:02:10;14.30;;;9.45;;
75912;SDS011;64592;52.168;21.040;2023-06-14T02:07:12;11.10;;;7.93;;
75912;SDS011;64592;52.168;21.040;2023-06-14T02:12:15;12.23;;;8.23;;
75912;SDS011;64592;52.168;21.040;2023-06-14T02:17:16;12.43;;;7.53;;
75912;SDS011;64592;52.168;21.040;2023-06-14T02:22:18;13.68;;;7.47;;
75912;SDS011;64592;52.168;21.040;2023-06-14T02:27:23;9.35;;;7.43;;
75912;SDS011;64592;52.168;21.040;2023-06-14T02:32:24;12.00;;;7.38;;
75912;SDS011;64592;52.168;21.040;2023-06-14T02:37:26;9.25;;;7.05;;
75912;SDS011;64592;52.168;21.040;2023-06-14T02:42:29;10.70;;;6.93;;
75912;SDS011;64592;52.168;21.040;2023-06-14T02:47:31;11.05;;;8.50;;
75912;SDS011;64592;52.168;21.040;2023-06-14T02:52:33;11.35;;;7.95;;
75912;SDS011;64592;52.168;21.040;2023-06-14T02:57:36;12.00;;;7.35;;
75912;SDS011;64592;52.168;21.040;2023-06-14T03:02:38;13.82;;;7.35;;
75912;SDS011;64592;52.168;21.040;2023-06-14T03:07:39;11.20;;;6.90;;
75912;SDS011;64592;52.168;21.040;2023-06-14T03:12:46;14.63;;;6.93;;
75912;SDS011;64592;52.168;21.040;2023-06-14T03:17:48;12.35;;;7.07;;
75912;SDS011;64592;52.168;21.040;2023-06-14T03:22:50;10.23;;;6.47;;
75912;SDS011;64592;52.168;21.040;2023-06-14T03:27:54;10.77;;;7.25;;
75912;SDS011;64592;52.168;21.040;2023-06-14T03:32:56;10.40;;;7.22;;
75912;SDS011;64592;52.168;21.040;2023-06-14T03:37:57;10.45;;;7.50;;
75912;SDS011;64592;52.168;21.040;2023-06-14T03:43:00;15.32;;;8.68;;
75912;SDS011;64592;52.168;21.040;2023-06-14T03:48:02;11.30;;;8.13;;
75912;SDS011;64592;52.168;21.040;2023-06-14T03:53:06;11.27;;;8.13;;
75912;SDS011;64592;52.168;21.040;2023-06-14T03:58:09;10.63;;;6.97;;
75912;SDS011;64592;52.168;21.040;2023-06-14T04:03:11;10.70;;;7.68;;
75912;SDS011;64592;52.168;21.040;2023-06-14T04:08:13;12.70;;;7.70;;
75912;SDS011;64592;52.168;21.040;2023-06-14T04:13:17;12.07;;;8.10;;
75912;SDS011;64592;52.168;21.040;2023-06-14T04:18:19;11.88;;;8.52;;
75912;SDS011;64592;52.168;21.040;2023-06-14T04:23:20;12.10;;;7.57;;
75912;SDS011;64592;52.168;21.040;2023-06-14T04:28:24;12.65;;;8.02;;
75912;SDS011;64592;52.168;21.040;2023-06-14T04:33:27;11.65;;;7.80;;
75912;SDS011;64592;52.168;21.040;2023-06-14T04:38:29;13.00;;;7.22;;
75912;SDS011;64592;52.168;21.040;2023-06-14T04:43:36;11.63;;;6.82;;
75912;SDS011;64592;52.168;21.040;2023-06-14T04:48:39;9.38;;;7.18;;
75912;SDS011;64592;52.168;21.040;2023-06-14T04:53:42;10.15;;;7.65;;
75912;SDS011;64592;52.168;21.040;2023-06-14T04:58:46;9.95;;;7.15;;
75912;SDS011;64592;52.168;21.040;2023-06-14T05:03:47;12.73;;;7.20;;
75912;SDS011;64592;52.168;21.040;2023-06-14T05:08:49;10.50;;;7.55;;
75912;SDS011;64592;52.168;21.040;2023-06-14T05:13:53;11.32;;;7.43;;
75912;SDS011;64592;52.168;21.040;2023-06-14T05:18:54;14.32;;;8.07;;
75912;SDS011;64592;52.168;21.040;2023-06-14T05:23:56;11.00;;;7.15;;
75912;SDS011;64592;52.168;21.040;2023-06-14T05:29:00;13.20;;;8.52;;
75912;SDS011;64592;52.168;21.040;2023-06-14T05:34:03;11.60;;;7.05;;
75912;SDS011;64592;52.168;21.040;2023-06-14T05:39:05;11.13;;;7.60;;
75912;SDS011;64592;52.168;21.040;2023-06-14T05:44:08;18.10;;;8.25;;
75912;SDS011;64592;52.168;21.040;2023-06-14T05:49:10;12.25;;;8.07;;
75912;SDS011;64592;52.168;21.040;2023-06-14T05:54:12;12.73;;;7.72;;
75912;SDS011;64592;52.168;21.040;2023-06-14T05:59:15;12.40;;;9.05;;
75912;SDS011;64592;52.168;21.040;2023-06-14T06:04:17;12.18;;;8.43;;
75912;SDS011;64592;52.168;21.040;2023-06-14T06:09:19;11.70;;;8.48;;
75912;SDS011;64592;52.168;21.040;2023-06-14T06:14:21;11.77;;;8.30;;
75912;SDS011;64592;52.168;21.040;2023-06-14T06:19:23;9.48;;;6.97;;
75912;SDS011;64592;52.168;21.040;2023-06-14T06:24:25;12.45;;;7.97;;
75912;SDS011;64592;52.168;21.040;2023-06-14T06:29:28;12.43;;;7.22;;
75912;SDS011;64592;52.168;21.040;2023-06-14T06:34:30;13.77;;;8.18;;
75912;SDS011;64592;52.168;21.040;2023-06-14T06:39:31;10.05;;;7.28;;
75912;SDS011;64592;52.168;21.040;2023-06-14T06:44:35;11.85;;;7.45;;
75912;SDS011;64592;52.168;21.040;2023-06-14T06:49:36;9.05;;;7.25;;
75912;SDS011;64592;52.168;21.040;2023-06-14T06:54:38;11.15;;;7.43;;
75912;SDS011;64592;52.168;21.040;2023-06-14T06:59:41;13.50;;;6.60;;
75912;SDS011;64592;52.168;21.040;2023-06-14T07:04:43;11.30;;;7.57;;
75912;SDS011;64592;52.168;21.040;2023-06-14T07:09:44;12.05;;;6.82;;
75912;SDS011;64592;52.168;21.040;2023-06-14T07:14:48;11.65;;;6.28;;
75912;SDS011;64592;52.168;21.040;2023-06-14T07:19:49;8.82;;;6.00;;
75912;SDS011;64592;52.168;21.040;2023-06-14T07:24:51;8.55;;;5.82;;
75912;SDS011;64592;52.168;21.040;2023-06-14T07:29:54;9.70;;;6.47;;
75912;SDS011;64592;52.168;21.040;2023-06-14T07:34:55;8.80;;;6.45;;
75912;SDS011;64592;52.168;21.040;2023-06-14T07:39:57;11.10;;;7.40;;
75912;SDS011;64592;52.168;21.040;2023-06-14T07:45:00;11.75;;;7.22;;
75912;SDS011;64592;52.168;21.040;2023-06-14T07:50:02;9.70;;;6.18;;
75912;SDS011;64592;52.168;21.040;2023-06-14T07:55:04;10.60;;;7.18;;
75912;SDS011;64592;52.168;21.040;2023-06-14T08:00:09;10.93;;;5.82;;
75912;SDS011;64592;52.168;21.040;2023-06-14T08:05:14;10.48;;;6.70;;
75912;SDS011;64592;52.168;21.040;2023-06-14T08:10:16;11.23;;;6.53;;
75912;SDS011;64592;52.168;21.040;2023-06-14T08:15:19;8.45;;;5.95;;
75912;SDS011;64592;52.168;21.040;2023-06-14T08:20:21;10.60;;;6.05;;
75912;SDS011;64592;52.168;21.040;2023-06-14T08:25:22;8.77;;;6.47;;
75912;SDS011;64592;52.168;21.040;2023-06-14T08:30:26;7.90;;;5.95;;
75912;SDS011;64592;52.168;21.040;2023-06-14T08:35:27;8.07;;;5.82;;
75912;SDS011;64592;52.168;21.040;2023-06-14T08:40:30;11.40;;;6.00;;
75912;SDS011;64592;52.168;21.040;2023-06-14T08:45:33;12.60;;;5.78;;
75912;SDS011;64592;52.168;21.040;2023-06-14T08:50:35;10.40;;;6.07;;
75912;SDS011;64592;52.168;21.040;2023-06-14T08:55:41;10.25;;;5.97;;
75912;SDS011;64592;52.168;21.040;2023-06-14T09:00:44;7.90;;;5.32;;
75912;SDS011;64592;52.168;21.040;2023-06-14T09:05:47;10.77;;;5.65;;
75912;SDS011;64592;52.168;21.040;2023-06-14T09:10:50;7.57;;;5.82;;
75912;SDS011;64592;52.168;21.040;2023-06-14T09:15:53;12.68;;;6.70;;
75912;SDS011;64592;52.168;21.040;2023-06-14T09:20:55;8.80;;;6.35;;
75912;SDS011;64592;52.168;21.040;2023-06-14T09:25:57;12.35;;;6.97;;
75912;SDS011;64592;52.168;21.040;2023-06-14T09:31:00;14.43;;;6.50;;
75912;SDS011;64592;52.168;21.040;2023-06-14T09:36:02;8.63;;;6.10;;
75912;SDS011;64592;52.168;21.040;2023-06-14T09:41:04;6.95;;;5.97;;
75912;SDS011;64592;52.168;21.040;2023-06-14T09:46:07;9.82;;;6.50;;
75912;SDS011;64592;52.168;21.040;2023-06-14T09:51:10;14.00;;;6.03;;
75912;SDS011;64592;52.168;21.040;2023-06-14T09:56:18;9.50;;;5.90;;
75912;SDS011;64592;52.168;21.040;2023-06-14T10:01:27;10.50;;;6.35;;
75912;SDS011;64592;52.168;21.040;2023-06-14T10:06:32;8.48;;;5.82;;
75912;SDS011;64592;52.168;21.040;2023-06-14T10:11:37;5.47;;;4.72;;
75912;SDS011;64592;52.168;21.040;2023-06-14T10:16:47;6.47;;;5.07;;
75912;SDS011;64592;52.168;21.040;2023-06-14T10:21:58;9.07;;;5.30;;
75912;SDS011;64592;52.168;21.040;2023-06-14T10:27:02;7.40;;;5.25;;
75912;SDS011;64592;52.168;21.040;2023-06-14T10:32:06;8.02;;;5.03;;
75912;SDS011;64592;52.168;21.040;2023-06-14T10:37:10;7.15;;;4.35;;
75912;SDS011;64592;52.168;21.040;2023-06-14T10:42:13;10.13;;;4.80;;
75912;SDS011;64592;52.168;21.040;2023-06-14T10:47:25;7.90;;;4.55;;
75912;SDS011;64592;52.168;21.040;2023-06-14T10:52:32;6.15;;;4.80;;
75912;SDS011;64592;52.168;21.040;2023-06-14T10:57:35;15.60;;;5.30;;
75912;SDS011;64592;52.168;21.040;2023-06-14T11:02:51;7.03;;;4.65;;
75912;SDS011;64592;52.168;21.040;2023-06-14T11:14:05;6.25;;;4.00;;
75912;SDS011;64592;52.168;21.040;2023-06-14T11:19:09;7.38;;;4.40;;
75912;SDS011;64592;52.168;21.040;2023-06-14T11:24:11;6.40;;;4.68;;
75912;SDS011;64592;52.168;21.040;2023-06-14T11:29:14;6.47;;;4.63;;
75912;SDS011;64592;52.168;21.040;2023-06-14T11:34:18;8.10;;;4.93;;
75912;SDS011;64592;52.168;21.040;2023-06-14T11:39:23;7.43;;;4.65;;
75912;SDS011;64592;52.168;21.040;2023-06-14T11:44:26;6.00;;;4.25;;
75912;SDS011;64592;52.168;21.040;2023-06-14T11:49:29;6.40;;;4.03;;
75912;SDS011;64592;52.168;21.040;2023-06-14T11:54:36;6.57;;;3.88;;
75912;SDS011;64592;52.168;21.040;2023-06-14T11:59:40;5.32;;;3.95;;
75912;SDS011;64592;52.168;21.040;2023-06-14T12:04:46;5.63;;;3.60;;
75912;SDS011;64592;52.168;21.040;2023-06-14T12:10:04;4.68;;;3.40;;
75912;SDS011;64592;52.168;21.040;2023-06-14T12:15:08;4.40;;;3.42;;
75912;SDS011;64592;52.168;21.040;2023-06-14T12:20:13;7.85;;;3.45;;
75912;SDS011;64592;52.168;21.040;2023-06-14T12:25:23;3.40;;;2.60;;
75912;SDS011;64592;52.168;21.040;2023-06-14T12:30:27;4.45;;;2.70;;
75912;SDS011;64592;52.168;21.040;2023-06-14T12:35:30;7.00;;;2.70;;
75912;SDS011;64592;52.168;21.040;2023-06-14T12:40:32;4.18;;;2.95;;
75912;SDS011;64592;52.168;21.040;2023-06-14T12:45:34;5.75;;;2.70;;
75912;SDS011;64592;52.168;21.040;2023-06-14T12:50:37;4.18;;;2.40;;
75912;SDS011;64592;52.168;21.040;2023-06-14T12:55:39;4.90;;;2.80;;
75912;SDS011;64592;52.168;21.040;2023-06-14T13:00:40;4.55;;;2.35;;
75912;SDS011;64592;52.168;21.040;2023-06-14T13:05:43;4.03;;;2.65;;
75912;SDS011;64592;52.168;21.040;2023-06-14T13:10:45;8.18;;;2.40;;
75912;SDS011;64592;52.168;21.040;2023-06-14T13:15:47;3.97;;;2.50;;
75912;SDS011;64592;52.168;21.040;2023-06-14T13:20:51;3.58;;;2.60;;
75912;SDS011;64592;52.168;21.040;2023-06-14T13:25:52;5.63;;;2.78;;
75912;SDS011;64592;52.168;21.040;2023-06-14T13:30:54;3.83;;;2.47;;
75912;SDS011;64592;52.168;21.040;2023-06-14T13:35:58;3.97;;;2.30;;
75912;SDS011;64592;52.168;21.040;2023-06-14T13:40:59;3.42;;;2.55;;
75912;SDS011;64592;52.168;21.040;2023-06-14T13:46:01;4.07;;;2.58;;
75912;SDS011;64592;52.168;21.040;2023-06-14T13:51:04;3.78;;;2.70;;
75912;SDS011;64592;52.168;21.040;2023-06-14T13:56:06;4.22;;;2.58;;
75912;SDS011;64592;52.168;21.040;2023-06-14T14:01:07;4.10;;;2.70;;
75912;SDS011;64592;52.168;21.040;2023-06-14T14:06:11;5.05;;;2.90;;
75912;SDS011;64592;52.168;21.040;2023-06-14T14:11:13;4.68;;;3.05;;
75912;SDS011;64592;52.168;21.040;2023-06-14T14:16:16;4.55;;;2.65;;
75912;SDS011;64592;52.168;21.040;2023-06-14T14:21:20;3.78;;;2.60;;
75912;SDS011;64592;52.168;21.040;2023-06-14T14:26:22;4.28;;;2.60;;
75912;SDS011;64592;52.168;21.040;2023-06-14T14:31:24;4.57;;;2.92;;
75912;SDS011;64592;52.168;21.040;2023-06-14T14:36:27;3.90;;;2.75;;
75912;SDS011;64592;52.168;21.040;2023-06-14T14:41:29;6.30;;;3.33;;
75912;SDS011;64592;52.168;21.040;2023-06-14T14:46:30;4.72;;;2.85;;
75912;SDS011;64592;52.168;21.040;2023-06-14T14:51:33;5.13;;;2.80;;
75912;SDS011;64592;52.168;21.040;2023-06-14T14:56:35;4.85;;;3.08;;
75912;SDS011;64592;52.168;21.040;2023-06-14T15:01:38;5.68;;;3.00;;
75912;SDS011;64592;52.168;21.040;2023-06-14T15:06:41;3.63;;;2.30;;
75912;SDS011;64592;52.168;21.040;2023-06-14T15:11:43;4.57;;;2.53;;
75912;SDS011;64592;52.168;21.040;2023-06-14T15:16:45;4.97;;;3.10;;
75912;SDS011;64592;52.168;21.040;2023-06-14T15:21:48;3.53;;;2.50;;
75912;SDS011;64592;52.168;21.040;2023-06-14T15:26:50;4.10;;;2.78;;
75912;SDS011;64592;52.168;21.040;2023-06-14T15:31:51;5.80;;;3.00;;
75912;SDS011;64592;52.168;21.040;2023-06-14T15:36:56;4.80;;;2.85;;
75912;SDS011;64592;52.168;21.040;2023-06-14T15:41:58;4.82;;;3.40;;
75912;SDS011;64592;52.168;21.040;2023-06-14T15:47:00;4.13;;;2.80;;
75912;SDS011;64592;52.168;21.040;2023-06-14T15:52:03;4.97;;;2.67;;
75912;SDS011;64592;52.168;21.040;2023-06-14T15:57:06;5.63;;;3.30;;
75912;SDS011;64592;52.168;21.040;2023-06-14T16:02:08;5.50;;;3.30;;
75912;SDS011;64592;52.168;21.040;2023-06-14T16:07:11;5.40;;;3.90;;
75912;SDS011;64592;52.168;21.040;2023-06-14T16:12:12;5.78;;;4.18;;
75912;SDS011;64592;52.168;21.040;2023-06-14T16:17:14;7.05;;;4.07;;
75912;SDS011;64592;52.168;21.040;2023-06-14T16:22:17;5.75;;;4.40;;
75912;SDS011;64592;52.168;21.040;2023-06-14T16:27:19;8.60;;;4.50;;
75912;SDS011;64592;52.168;21.040;2023-06-14T16:32:20;6.97;;;4.85;;
75912;SDS011;64592;52.168;21.040;2023-06-14T16:37:23;8.60;;;5.65;;
75912;SDS011;64592;52.168;21.040;2023-06-14T16:42:25;7.32;;;4.93;;
75912;SDS011;64592;52.168;21.040;2023-06-14T16:47:27;8.55;;;4.20;;
75912;SDS011;64592;52.168;21.040;2023-06-14T16:52:30;6.82;;;3.92;;
75912;SDS011;64592;52.168;21.040;2023-06-14T16:57:31;9.18;;;4.05;;
75912;SDS011;64592;52.168;21.040;2023-06-14T17:02:33;7.55;;;4.95;;
75912;SDS011;64592;52.168;21.040;2023-06-14T17:07:36;8.25;;;4.72;;
75912;SDS011;64592;52.168;21.040;2023-06-14T17:12:38;6.18;;;4.30;;
75912;SDS011;64592;52.168;21.040;2023-06-14T17:17:40;5.57;;;4.60;;
75912;SDS011;64592;52.168;21.040;2023-06-14T17:22:43;10.98;;;5.55;;
75912;SDS011;64592;52.168;21.040;2023-06-14T17:27:45;7.65;;;5.07;;
75912;SDS011;64592;52.168;21.040;2023-06-14T17:32:47;7.28;;;5.00;;
75912;SDS011;64592;52.168;21.040;2023-06-14T17:37:50;8.65;;;5.75;;
75912;SDS011;64592;52.168;21.040;2023-06-14T17:42:51;9.23;;;7.20;;
75912;SDS011;64592;52.168;21.040;2023-06-14T17:47:53;7.97;;;5.82;;
75912;SDS011;64592;52.168;21.040;2023-06-14T17:52:56;9.00;;;6.20;;
75912;SDS011;64592;52.168;21.040;2023-06-14T17:58:00;10.77;;;6.75;;
75912;SDS011;64592;52.168;21.040;2023-06-14T18:03:03;11.70;;;7.25;;
75912;SDS011;64592;52.168;21.040;2023-06-14T18:08:06;10.82;;;6.65;;
75912;SDS011;64592;52.168;21.040;2023-06-14T18:13:07;13.73;;;7.63;;
75912;SDS011;64592;52.168;21.040;2023-06-14T18:18:09;10.88;;;7.57;;
75912;SDS011;64592;52.168;21.040;2023-06-14T18:23:12;9.10;;;7.20;;
75912;SDS011;64592;52.168;21.040;2023-06-14T18:28:14;13.63;;;7.90;;
75912;SDS011;64592;52.168;21.040;2023-06-14T18:33:16;9.13;;;7.07;;
75912;SDS011;64592;52.168;21.040;2023-06-14T18:38:19;9.40;;;7.75;;
75912;SDS011;64592;52.168;21.040;2023-06-14T18:43:21;11.30;;;7.03;;
75912;SDS011;64592;52.168;21.040;2023-06-14T18:48:22;11.02;;;7.50;;
75912;SDS011;64592;52.168;21.040;2023-06-14T18:53:25;12.98;;;7.85;;
75912;SDS011;64592;52.168;21.040;2023-06-14T18:58:27;14.85;;;8.48;;
75912;SDS011;64592;52.168;21.040;2023-06-14T19:03:29;8.68;;;7.45;;
75912;SDS011;64592;52.168;21.040;2023-06-14T19:08:32;12.43;;;8.02;;
75912;SDS011;64592;52.168;21.040;2023-06-14T19:13:34;13.02;;;8.45;;
75912;SDS011;64592;52.168;21.040;2023-06-14T19:18:36;13.35;;;8.57;;
75912;SDS011;64592;52.168;21.040;2023-06-14T19:23:39;9.05;;;7.78;;
75912;SDS011;64592;52.168;21.040;2023-06-14T19:28:42;8.68;;;6.55;;
75912;SDS011;64592;52.168;21.040;2023-06-14T19:33:44;9.73;;;7.10;;
75912;SDS011;64592;52.168;21.040;2023-06-14T19:38:47;10.15;;;6.63;;
75912;SDS011;64592;52.168;21.040;2023-06-14T19:43:48;8.95;;;6.28;;
75912;SDS011;64592;52.168;21.040;2023-06-14T19:48:50;8.13;;;6.63;;
75912;SDS011;64592;52.168;21.040;2023-06-14T19:53:53;10.18;;;6.72;;
75912;SDS011;64592;52.168;21.040;2023-06-14T19:58:55;12.98;;;7.35;;
75912;SDS011;64592;52.168;21.040;2023-06-14T20:03:56;9.77;;;6.63;;
75912;SDS011;64592;52.168;21.040;2023-06-14T20:08:59;13.48;;;6.68;;
75912;SDS011;64592;52.168;21.040;2023-06-14T20:14:05;11.45;;;5.95;;
75912;SDS011;64592;52.168;21.040;2023-06-14T20:19:07;7.78;;;6.07;;
75912;SDS011;64592;52.168;21.040;2023-06-14T20:24:10;9.25;;;6.57;;
75912;SDS011;64592;52.168;21.040;2023-06-14T20:29:12;9.15;;;6.20;;
75912;SDS011;64592;52.168;21.040;2023-06-14T20:34:13;8.70;;;6.03;;
75912;SDS011;64592;52.168;21.040;2023-06-14T20:39:16;8.68;;;6.32;;
75912;SDS011;64592;52.168;21.040;2023-06-14T20:44:18;8.65;;;6.32;;
75912;SDS011;64592;52.168;21.040;2023-06-14T20:49:21;9.70;;;6.18;;
75912;SDS011;64592;52.168;21.040;2023-06-14T20:54:24;12.93;;;8.13;;
75912;SDS011;64592;52.168;21.040;2023-06-14T20:59:25;10.32;;;6.88;;
75912;SDS011;64592;52.168;21.040;2023-06-14T21:04:27;9.07;;;6.13;;
75912;SDS011;64592;52.168;21.040;2023-06-14T21:09:30;12.02;;;6.75;;
75912;SDS011;64592;52.168;21.040;2023-06-14T21:14:32;9.93;;;6.38;;
75912;SDS011;64592;52.168;21.040;2023-06-14T21:19:34;8.13;;;6.55;;
75912;SDS011;64592;52.168;21.040;2023-06-14T21:24:38;9.88;;;6.63;;
75912;SDS011;64592;52.168;21.040;2023-06-14T21:29:40;11.02;;;6.22;;
75912;SDS011;64592;52.168;21.040;2023-06-14T21:34:42;8.48;;;6.20;;
75912;SDS011;64592;52.168;21.040;2023-06-14T21:39:46;10.10;;;7.38;;
75912;SDS011;64592;52.168;21.040;2023-06-14T21:44:48;8.45;;;7.10;;
75912;SDS011;64592;52.168;21.040;2023-06-14T21:49:51;10.65;;;7.00;;
75912;SDS011;64592;52.168;21.040;2023-06-14T21:54:55;9.65;;;6.40;;
75912;SDS011;64592;52.168;21.040;2023-06-14T21:59:57;10.98;;;7.00;;
75912;SDS011;64592;52.168;21.040;2023-06-14T22:04:58;9.38;;;6.90;;
75912;SDS011;64592;52.168;21.040;2023-06-14T22:10:02;11.68;;;7.93;;
75912;SDS011;64592;52.168;21.040;2023-06-14T22:15:04;11.10;;;7.70;;
75912;SDS011;64592;52.168;21.040;2023-06-14T22:20:07;13.73;;;7.63;;
75912;SDS011;64592;52.168;21.040;2023-06-14T22:25:11;13.07;;;7.85;;
75912;SDS011;64592;52.168;21.040;2023-06-14T22:30:14;11.40;;;7.75;;
75912;SDS011;64592;52.168;21.040;2023-06-14T22:35:16;12.25;;;8.15;;
75912;SDS011;64592;52.168;21.040;2023-06-14T22:40:20;11.90;;;7.30;;
75912;SDS011;64592;52.168;21.040;2023-06-14T22:45:21;13.18;;;7.65;;
75912;SDS011;64592;52.168;21.040;2023-06-14T22:50:23;10.05;;;7.70;;
75912;SDS011;64592;52.168;21.040;2023-06-14T22:55:27;11.88;;;8.07;;
75912;SDS011;64592;52.168;21.040;2023-06-14T23:00:28;10.88;;;7.13;;
75912;SDS011;64592;52.168;21.040;2023-06-14T23:05:31;9.55;;;6.90;;
75912;SDS011;64592;52.168;21.040;2023-06-14T23:10:34;10.80;;;7.00;;
75912;SDS011;64592;52.168;21.040;2023-06-14T23:15:37;10.70;;;7.75;;
75912;SDS011;64592;52.168;21.040;2023-06-14T23:20:38;11.38;;;7.40;;
75912;SDS011;64592;52.168;21.040;2023-06-14T23:25:41;12.40;;;8.65;;
75912;SDS011;64592;52.168;21.040;2023-06-14T23:30:43;12.85;;;8.25;;
75912;SDS011;64592;52.168;21.040;2023-06-14T23:35:46;13.52;;;9.23;;
75912;SDS011;64592;52.168;21.040;2023-06-14T23:40:49;10.02;;;8.00;;
75912;SDS011;64592;52.168;21.040;2023-06-14T23:45:51;10.75;;;8.18;;
75912;SDS011;64592;52.168;21.040;2023-06-14T23:50:55;12.90;;;9.05;;
75912;SDS011;64592;52.168;21.040;2023-06-14T23:55:58;10.88;;;8.38;;
